Time;durP1;ratioP1;P1;durP2;ratioP2;P2;SDS_P1;SDS_P2;PMS_P1;PMS_P2;Temp;Humidity;BMP_temperature;BMP_pressure;BME280_temperature;BME280_humidity;BME280_pressure;Samples;Min_cycle;Max_cycle;Signal;HPM_P1;HPM_P2
2024/02/11 00:00:04;;;;;;;13.97;6.23;;;;;;;9.33;100.00;93451.91;4973495;28;20423;-68
2024/02/11 00:02:37;;;;;;;10.77;5.27;;;;;;;9.24;100.00;93448.06;4974978;28;20207;-68
2024/02/11 00:05:08;;;;;;;13.37;6.23;;;;;;;9.56;100.00;93437.84;4973604;28;20582;-68
2024/02/11 00:07:39;;;;;;;10.10;5.73;;;;;;;9.40;100.00;93443.88;4974445;28;20312;-69
2024/02/11 00:10:08;;;;;;;15.13;6.50;;;;;;;9.36;100.00;93442.75;4971402;28;20215;-68
2024/02/11 00:12:35;;;;;;;13.00;6.30;;;;;;;9.41;100.00;93440.22;4974196;28;20580;-68
2024/02/11 00:15:03;;;;;;;15.07;5.63;;;;;;;9.39;100.00;93440.44;4973284;28;20203;-68
2024/02/11 00:17:29;;;;;;;11.30;5.73;;;;;;;9.43;100.00;93451.28;4973900;28;20203;-68
2024/02/11 00:19:56;;;;;;;11.70;6.13;;;;;;;9.42;100.00;93475.97;4973344;28;20231;-68
2024/02/11 00:22:23;;;;;;;9.47;5.37;;;;;;;9.50;100.00;93478.22;4972633;28;20208;-68
2024/02/11 00:24:50;;;;;;;11.47;6.13;;;;;;;9.42;100.00;93468.06;4973464;28;20525;-68
2024/02/11 00:27:16;;;;;;;14.63;6.27;;;;;;;9.45;100.00;93470.25;4974487;28;20227;-68
2024/02/11 00:29:42;;;;;;;11.00;6.10;;;;;;;9.47;100.00;93463.72;4972691;28;20208;-68
2024/02/11 00:32:08;;;;;;;12.47;6.00;;;;;;;9.44;100.00;93473.91;4973269;28;20246;-68
2024/02/11 00:34:35;;;;;;;16.17;5.53;;;;;;;9.52;100.00;93470.88;4974005;28;20204;-68
2024/02/11 00:37:03;;;;;;;13.77;6.53;;;;;;;9.49;100.00;93482.66;4973805;28;20676;-68
2024/02/11 00:39:33;;;;;;;13.13;6.33;;;;;;;9.45;100.00;93486.81;4972218;28;20208;-68
2024/02/11 00:41:59;;;;;;;9.77;5.40;;;;;;;9.06;100.00;93505.25;4973294;28;20231;-68
2024/02/11 00:44:26;;;;;;;12.17;6.17;;;;;;;9.19;100.00;93510.25;4974448;28;20588;-69
2024/02/11 00:46:52;;;;;;;12.03;6.03;;;;;;;9.18;100.00;93503.38;4977091;28;20398;-69
2024/02/11 00:49:19;;;;;;;12.87;5.97;;;;;;;9.34;100.00;93500.00;4976545;28;20207;-68
2024/02/11 00:51:45;;;;;;;10.73;5.70;;;;;;;9.23;100.00;93511.38;4977409;28;20408;-68
2024/02/11 00:54:13;;;;;;;9.47;5.53;;;;;;;9.43;100.00;93503.84;4976706;28;20590;-68
2024/02/11 00:56:42;;;;;;;17.53;6.17;;;;;;;9.71;100.00;93502.78;4977442;28;20210;-68
2024/02/11 00:59:10;;;;;;;16.77;6.60;;;;;;;9.55;100.00;93497.50;4976745;28;20233;-68
2024/02/11 01:01:40;;;;;;;14.83;6.37;;;;;;;9.40;100.00;93506.94;4976317;28;20851;-68
2024/02/11 01:04:07;;;;;;;11.60;6.07;;;;;;;9.44;100.00;93508.06;4976366;28;20210;-68
2024/02/11 01:06:34;;;;;;;12.43;6.00;;;;;;;9.54;100.00;93508.25;4976643;28;20849;-68
2024/02/11 01:09:01;;;;;;;11.43;5.87;;;;;;;9.55;100.00;93507.22;4977036;28;20203;-68
2024/02/11 01:11:28;;;;;;;12.20;5.90;;;;;;;9.52;100.00;93518.19;4975042;28;20709;-68
2024/02/11 01:13:56;;;;;;;9.87;5.37;;;;;;;9.64;100.00;93517.13;4977003;28;20207;-68
2024/02/11 01:16:23;;;;;;;15.77;6.53;;;;;;;9.69;100.00;93519.84;4976285;28;20302;-68
2024/02/11 01:18:50;;;;;;;12.13;6.00;;;;;;;9.37;100.00;93531.88;4976851;28;20210;-68
2024/02/11 01:21:16;;;;;;;13.07;5.77;;;;;;;9.57;100.00;93526.16;4975683;28;20478;-68
2024/02/11 01:23:47;;;;;;;12.27;5.87;;;;;;;9.64;100.00;93530.25;4976842;28;21046;-68
2024/02/11 01:26:13;;;;;;;12.93;6.13;;;;;;;9.58;100.00;93528.56;4975891;28;20211;-68
2024/02/11 01:28:40;;;;;;;10.70;6.50;;;;;;;9.67;100.00;93531.63;4976998;28;20226;-68
2024/02/11 01:31:09;;;;;;;14.47;6.33;;;;;;;9.73;100.00;93521.72;4975389;28;20757;-68
2024/02/11 01:33:35;;;;;;;11.47;6.43;;;;;;;9.64;100.00;93526.84;4976154;28;20207;-68
2024/02/11 01:36:02;;;;;;;14.73;6.10;;;;;;;9.70;100.00;93524.84;4977253;28;20207;-68
2024/02/11 01:38:28;;;;;;;11.80;6.27;;;;;;;9.68;100.00;93531.38;4976967;28;20204;-68
2024/02/11 01:40:56;;;;;;;13.50;7.10;;;;;;;9.79;100.00;93536.56;4974187;28;20965;-68
2024/02/11 01:43:23;;;;;;;14.67;5.83;;;;;;;9.87;100.00;93535.38;4975383;28;20207;-68
2024/02/11 01:45:49;;;;;;;13.07;5.57;;;;;;;9.83;100.00;93540.31;4976833;28;20290;-68
2024/02/11 01:48:18;;;;;;;9.43;5.40;;;;;;;10.05;100.00;93546.50;4975682;28;20737;-68
2024/02/11 01:50:45;;;;;;;13.73;6.60;;;;;;;9.98;100.00;93550.31;4975192;28;20228;-67
2024/02/11 01:53:13;;;;;;;14.43;5.73;;;;;;;9.98;100.00;93551.13;4976455;28;20203;-68
2024/02/11 01:55:41;;;;;;;12.37;6.00;;;;;;;9.94;100.00;93544.72;4976218;28;20203;-68
2024/02/11 01:58:08;;;;;;;11.03;5.43;;;;;;;9.96;100.00;93555.81;4975057;28;20207;-68
2024/02/11 02:00:35;;;;;;;14.40;7.13;;;;;;;9.83;100.00;93557.94;4974843;28;20231;-68
2024/02/11 02:03:03;;;;;;;10.77;5.87;;;;;;;10.00;100.00;93554.31;4976411;28;20208;-68
2024/02/11 02:05:31;;;;;;;18.73;7.33;;;;;;;10.12;100.00;93557.69;4975881;28;20199;-68
2024/02/11 02:07:59;;;;;;;10.90;5.83;;;;;;;10.02;100.00;93552.25;4976264;28;20223;-68
2024/02/11 02:10:25;;;;;;;14.13;5.43;;;;;;;10.06;100.00;93550.72;4974537;28;20231;-68
2024/02/11 02:12:52;;;;;;;11.40;5.67;;;;;;;10.05;100.00;93561.50;4975613;28;20203;-68
2024/02/11 02:15:18;;;;;;;13.97;6.10;;;;;;;9.96;100.00;93558.44;4976283;28;20203;-68
2024/02/11 02:17:46;;;;;;;12.70;6.40;;;;;;;9.95;100.00;93562.13;4976213;28;20502;-68
2024/02/11 02:20:14;;;;;;;11.00;5.60;;;;;;;9.87;100.00;93559.06;4974965;28;20273;-67
2024/02/11 02:22:42;;;;;;;14.17;6.43;;;;;;;10.09;100.00;93560.00;4975353;28;20531;-67
2024/02/11 02:25:09;;;;;;;9.57;5.77;;;;;;;9.92;100.00;93559.94;4975899;28;20439;-67
2024/02/11 02:27:37;;;;;;;12.33;5.97;;;;;;;10.02;100.00;93567.25;4975166;28;20861;-67
2024/02/11 02:30:04;;;;;;;14.07;6.50;;;;;;;9.87;100.00;93559.84;4975094;28;20233;-67
2024/02/11 02:32:31;;;;;;;14.53;6.67;;;;;;;10.02;100.00;93564.63;4975485;28;20218;-68
2024/02/11 02:34:57;;;;;;;11.70;5.70;;;;;;;9.84;100.00;93552.44;4975531;28;20231;-68
2024/02/11 02:37:25;;;;;;;13.70;6.63;;;;;;;9.97;100.00;93554.78;4975684;28;20231;-68
2024/02/11 02:39:53;;;;;;;12.77;6.27;;;;;;;10.15;100.00;93557.19;4974703;28;20215;-68
2024/02/11 02:42:20;;;;;;;14.93;6.30;;;;;;;9.93;100.00;93566.78;4974550;28;20203;-67
2024/02/11 02:44:46;;;;;;;14.37;6.60;;;;;;;10.01;100.00;93561.16;4975126;28;20477;-68
2024/02/11 02:47:13;;;;;;;13.57;5.97;;;;;;;9.87;100.00;93564.31;4975834;28;20211;-68
2024/02/11 02:49:39;;;;;;;12.37;6.93;;;;;;;9.85;100.00;93572.44;4975258;28;20207;-68
2024/02/11 02:52:07;;;;;;;18.47;7.37;;;;;;;9.92;100.00;93567.81;4975572;28;20230;-68
2024/02/11 02:54:34;;;;;;;14.70;6.90;;;;;;;10.05;100.00;93572.81;4975012;28;20207;-68
2024/02/11 02:57:02;;;;;;;16.13;7.43;;;;;;;10.20;100.00;93567.81;4975584;28;20587;-68
2024/02/11 02:59:28;;;;;;;16.27;6.93;;;;;;;10.14;100.00;93574.00;4975412;28;20211;-67
2024/02/11 03:01:58;;;;;;;17.20;7.27;;;;;;;10.11;100.00;93577.13;4975185;28;20724;-68
2024/02/11 03:04:25;;;;;;;15.83;7.53;;;;;;;10.02;100.00;93570.66;4975042;28;20714;-68
2024/02/11 03:06:52;;;;;;;20.43;7.77;;;;;;;10.10;100.00;93575.53;4974917;28;20208;-68
2024/02/11 03:09:18;;;;;;;15.97;7.80;;;;;;;10.12;100.00;93578.72;4973670;28;20231;-67
2024/02/11 03:11:46;;;;;;;15.17;7.07;;;;;;;10.16;100.00;93585.09;4974165;28;21271;-68
2024/02/11 03:14:14;;;;;;;15.07;7.30;;;;;;;10.14;100.00;93586.38;4975932;28;20203;-67
2024/02/11 03:16:46;;;;;;;19.73;7.77;;;;;;;10.03;100.00;93579.34;4974642;28;20424;-68
2024/02/11 03:19:14;;;;;;;13.43;6.80;;;;;;;10.12;100.00;93588.44;4975045;28;20199;-68
2024/02/11 03:21:40;;;;;;;15.27;6.90;;;;;;;10.14;100.00;93586.38;4974177;28;20227;-68
2024/02/11 03:24:08;;;;;;;15.37;7.50;;;;;;;10.13;100.00;93590.84;4975183;28;20207;-68
2024/02/11 03:26:33;;;;;;;20.57;8.60;;;;;;;10.15;100.00;93593.25;4974928;28;20215;-68
2024/02/11 03:29:00;;;;;;;15.93;7.13;;;;;;;10.18;100.00;93593.53;4974389;28;20254;-68
2024/02/11 03:31:28;;;;;;;16.63;7.30;;;;;;;10.25;100.00;93588.94;4974423;28;20848;-68
2024/02/11 03:33:55;;;;;;;14.03;6.67;;;;;;;10.17;100.00;93597.25;4974480;28;20211;-68
2024/02/11 03:36:21;;;;;;;15.03;7.23;;;;;;;10.11;100.00;93595.53;4974486;28;20210;-68
2024/02/11 03:38:48;;;;;;;16.20;8.07;;;;;;;9.91;100.00;93594.38;4974677;28;20662;-68
2024/02/11 03:41:16;;;;;;;18.90;7.67;;;;;;;10.12;100.00;93598.97;4973342;28;20223;-67
2024/02/11 03:43:43;;;;;;;19.83;8.40;;;;;;;10.08;100.00;93609.19;4974132;28;20611;-67
2024/02/11 03:46:09;;;;;;;19.10;7.40;;;;;;;10.12;100.00;93607.66;4974657;28;20294;-67
2024/02/11 03:48:37;;;;;;;18.53;7.93;;;;;;;10.05;100.00;93609.63;4972872;28;20753;-68
2024/02/11 03:51:06;;;;;;;18.57;7.93;;;;;;;9.99;100.00;93618.50;4973971;28;20227;-68
2024/02/11 03:53:33;;;;;;;18.23;8.50;;;;;;;9.98;100.00;93627.41;4974600;28;20696;-68
2024/02/11 03:56:03;;;;;;;15.53;7.27;;;;;;;9.93;100.00;93624.66;4973958;28;20210;-69
2024/02/11 03:58:30;;;;;;;18.27;7.97;;;;;;;9.98;100.00;93634.50;4974461;28;20214;-68
2024/02/11 04:00:57;;;;;;;18.37;7.77;;;;;;;10.04;100.00;93634.38;4973350;28;20283;-68
2024/02/11 04:03:23;;;;;;;18.33;8.20;;;;;;;10.07;100.00;93633.88;4975330;28;20207;-68
2024/02/11 04:05:55;;;;;;;16.47;7.27;;;;;;;10.26;100.00;93627.38;4974352;28;20204;-68
2024/02/11 04:08:22;;;;;;;21.10;8.23;;;;;;;9.95;100.00;93641.00;4973629;28;20231;-67
2024/02/11 04:10:52;;;;;;;20.23;8.23;;;;;;;9.99;100.00;93647.44;4972654;28;20288;-67
2024/02/11 04:13:23;;;;;;;21.43;9.33;;;;;;;9.88;100.00;93658.75;4974423;28;20592;-67
2024/02/11 04:15:51;;;;;;;10.00;4.80;;;;;;;9.62;100.00;93670.84;4973780;28;20203;-67
2024/02/11 04:18:21;;;;;;;4.77;2.23;;;;;;;9.53;100.00;93662.50;4974159;28;20207;-67
2024/02/11 04:20:48;;;;;;;4.50;2.10;;;;;;;9.35;100.00;93665.28;4975766;28;20497;-67
2024/02/11 04:23:16;;;;;;;3.17;1.70;;;;;;;9.51;100.00;93658.53;4976978;28;20214;-67
2024/02/11 04:25:45;;;;;;;3.73;2.27;;;;;;;9.38;100.00;93658.78;4977814;28;20213;-67
2024/02/11 04:28:11;;;;;;;3.47;2.00;;;;;;;9.22;100.00;93664.75;4977212;28;20227;-67
2024/02/11 04:30:42;;;;;;;2.10;1.40;;;;;;;9.12;100.00;93670.56;4976931;28;20567;-67
2024/02/11 04:33:11;;;;;;;3.83;1.17;;;;;;;9.20;100.00;93666.81;4977163;28;20242;-68
2024/02/11 04:35:39;;;;;;;1.37;1.10;;;;;;;9.12;100.00;93669.78;4977737;28;20255;-67
2024/02/11 04:38:12;;;;;;;0.80;0.70;;;;;;;8.73;100.00;93675.75;4976691;28;20639;-67
2024/02/11 04:40:40;;;;;;;0.53;0.50;;;;;;;9.00;100.00;93679.50;4976053;28;20284;-68
2024/02/11 04:43:06;;;;;;;0.60;0.60;;;;;;;8.62;100.00;93689.66;4977274;28;20214;-68
2024/02/11 04:45:33;;;;;;;1.50;0.63;;;;;;;8.55;100.00;93682.91;4977123;28;20665;-67
2024/02/11 04:48:03;;;;;;;0.40;0.40;;;;;;;8.48;100.00;93701.38;4977067;28;20227;-67
2024/02/11 04:50:31;;;;;;;1.03;0.80;;;;;;;8.41;100.00;93702.50;4976199;28;20229;-70
2024/02/11 04:53:01;;;;;;;0.63;0.63;;;;;;;8.53;100.00;93700.72;4976929;28;20210;-70
2024/02/11 04:55:38;;;;;;;0.97;0.67;;;;;;;8.29;100.00;93714.00;4976931;28;20212;-70
2024/02/11 04:58:07;;;;;;;0.80;0.70;;;;;;;8.36;100.00;93715.47;4977404;28;20227;-70
2024/02/11 05:00:34;;;;;;;0.63;0.60;;;;;;;8.12;100.00;93720.84;4975908;28;20709;-70
2024/02/11 05:03:03;;;;;;;0.43;0.43;;;;;;;8.22;100.00;93729.00;4976511;28;20203;-70
2024/02/11 05:05:31;;;;;;;1.10;0.67;;;;;;;8.07;100.00;93747.75;4977131;28;20213;-70
2024/02/11 05:08:00;;;;;;;0.70;0.60;;;;;;;7.66;100.00;93751.28;4977057;28;20773;-70
2024/02/11 05:10:28;;;;;;;0.50;0.50;;;;;;;7.70;100.00;93755.88;4975747;28;20312;-69
2024/02/11 05:12:56;;;;;;;0.60;0.60;;;;;;;7.50;100.00;93763.16;4976739;28;20207;-69
2024/02/11 05:15:24;;;;;;;1.43;0.87;;;;;;;7.53;100.00;93767.94;4977259;28;20740;-69
2024/02/11 05:17:54;;;;;;;1.00;0.87;;;;;;;7.44;100.00;93777.13;4976269;28;20215;-70
2024/02/11 05:20:21;;;;;;;1.23;0.80;;;;;;;7.43;100.00;93786.00;4975843;28;20299;-70
2024/02/11 05:22:49;;;;;;;1.60;0.70;;;;;;;7.38;100.00;93795.53;4976654;28;20199;-70
2024/02/11 05:25:19;;;;;;;1.03;0.70;;;;;;;7.31;100.00;93806.06;4977023;28;20699;-70
2024/02/11 05:27:49;;;;;;;1.13;0.80;;;;;;;7.29;100.00;93800.25;4976578;28;20735;-70
2024/02/11 05:30:15;;;;;;;2.17;1.07;;;;;;;7.30;100.00;93816.75;4976301;28;20265;-70
2024/02/11 05:32:47;;;;;;;1.63;1.20;;;;;;;7.29;100.00;93826.44;4975539;28;20203;-70
2024/02/11 05:35:17;;;;;;;1.20;0.90;;;;;;;7.19;100.00;93824.50;4976142;28;20222;-70
2024/02/11 05:37:44;;;;;;;2.37;1.30;;;;;;;6.97;100.00;93825.91;4976572;28;20209;-70
2024/02/11 05:40:11;;;;;;;1.57;1.17;;;;;;;6.85;100.00;93833.66;4975228;28;20219;-70
2024/02/11 05:42:39;;;;;;;2.27;1.30;;;;;;;7.17;100.00;93829.19;4976197;28;20207;-70
2024/02/11 05:45:06;;;;;;;2.50;1.50;;;;;;;7.18;100.00;93839.44;4976510;28;20608;-70
2024/02/11 05:47:33;;;;;;;2.60;1.53;;;;;;;6.82;100.00;93848.97;4976812;28;20207;-70
2024/02/11 05:50:01;;;;;;;2.60;1.43;;;;;;;6.99;100.00;93844.84;4975290;28;20219;-70
2024/02/11 05:52:28;;;;;;;1.90;1.20;;;;;;;6.99;100.00;93855.31;4976672;28;20204;-70
2024/02/11 05:54:54;;;;;;;1.97;1.23;;;;;;;6.70;100.00;93866.38;4976217;28;20203;-69
2024/02/11 05:57:21;;;;;;;2.67;1.43;;;;;;;6.83;100.00;93853.97;4976463;28;20203;-70
2024/02/11 05:59:48;;;;;;;2.43;1.80;;;;;;;6.90;100.00;93861.81;4975751;28;20207;-70
2024/02/11 06:02:15;;;;;;;2.47;1.53;;;;;;;6.88;100.00;93875.09;4975428;28;20261;-70
2024/02/11 06:04:42;;;;;;;3.53;2.00;;;;;;;6.83;100.00;93887.22;4976324;28;20239;-69
2024/02/11 06:07:10;;;;;;;2.77;1.50;;;;;;;6.93;100.00;93880.50;4976015;28;20218;-70
2024/02/11 06:09:38;;;;;;;2.97;1.80;;;;;;;6.72;100.00;93886.06;4975214;28;20292;-70
2024/02/11 06:12:06;;;;;;;2.30;1.30;;;;;;;6.64;100.00;93888.13;4974734;28;20429;-69
2024/02/11 06:14:33;;;;;;;3.57;1.80;;;;;;;6.55;100.00;93893.81;4975426;28;20605;-70
2024/02/11 06:17:00;;;;;;;4.27;1.77;;;;;;;6.62;100.00;93894.56;4975556;28;20206;-70
2024/02/11 06:19:26;;;;;;;4.27;2.27;;;;;;;6.67;100.00;93904.22;4974904;28;20214;-70
2024/02/11 06:21:55;;;;;;;1.50;1.10;;;;;;;6.53;100.00;93911.53;4975419;28;21052;-70
2024/02/11 06:24:24;;;;;;;1.87;1.40;;;;;;;6.76;100.00;93918.66;4975162;28;20304;-70
2024/02/11 06:26:51;;;;;;;1.93;1.33;;;;;;;6.57;100.00;93915.31;4974818;28;20603;-70
2024/02/11 06:29:18;;;;;;;1.87;1.50;;;;;;;6.62;100.00;93920.75;4976015;28;20218;-70
2024/02/11 06:31:44;;;;;;;1.30;0.90;;;;;;;6.42;100.00;93920.84;4974062;28;20231;-70
2024/02/11 06:34:11;;;;;;;2.07;1.27;;;;;;;6.30;100.00;93938.19;4974938;28;20207;-70
2024/02/11 06:36:37;;;;;;;2.17;1.40;;;;;;;6.31;100.00;93939.81;4975825;28;20588;-70
2024/02/11 06:39:10;;;;;;;2.10;1.40;;;;;;;6.66;100.00;93944.47;4975605;28;21136;-70
2024/02/11 06:41:38;;;;;;;1.67;1.37;;;;;;;6.54;100.00;93952.38;4973130;28;20733;-71
2024/02/11 06:44:06;;;;;;;2.00;1.30;;;;;;;6.65;100.00;93945.47;4975717;28;20210;-70
2024/02/11 06:46:32;;;;;;;2.47;1.50;;;;;;;6.71;100.00;93959.56;4976008;28;20207;-70
2024/02/11 06:49:00;;;;;;;2.47;1.50;;;;;;;6.34;100.00;93959.47;4975904;28;20227;-71
2024/02/11 06:51:31;;;;;;;1.90;1.40;;;;;;;6.47;100.00;93962.88;4975345;28;20288;-71
2024/02/11 06:53:57;;;;;;;3.90;2.07;;;;;;;6.53;100.00;93971.69;4976353;28;20234;-70
2024/02/11 06:56:27;;;;;;;2.83;1.77;;;;;;;6.49;100.00;93971.31;4975329;28;20207;-69
2024/02/11 06:58:57;;;;;;;2.60;1.50;;;;;;;6.49;100.00;93975.72;4975949;28;20658;-70
2024/02/11 07:01:23;;;;;;;2.63;1.90;;;;;;;6.40;100.00;93980.41;4974543;28;20281;-70
2024/02/11 07:03:51;;;;;;;2.87;1.90;;;;;;;6.39;100.00;93984.03;4975749;28;20215;-69
2024/02/11 07:06:17;;;;;;;2.30;1.30;;;;;;;6.34;100.00;93991.69;4975935;28;20289;-69
2024/02/11 07:08:44;;;;;;;1.57;1.33;;;;;;;6.14;100.00;94001.38;4975750;28;20238;-70
2024/02/11 07:11:11;;;;;;;2.37;1.63;;;;;;;6.31;100.00;93996.50;4974218;28;20215;-71
2024/02/11 07:13:38;;;;;;;1.77;1.27;;;;;;;6.18;100.00;93997.34;4975604;28;20208;-71
2024/02/11 07:16:08;;;;;;;1.33;1.10;;;;;;;6.21;100.00;94010.03;4975730;28;20206;-70
2024/02/11 07:18:34;;;;;;;1.60;1.13;;;;;;;6.06;100.00;94006.81;4975171;28;20230;-69
2024/02/11 07:21:01;;;;;;;1.13;0.93;;;;;;;6.17;100.00;94016.69;4975294;28;20328;-68
2024/02/11 07:23:27;;;;;;;1.77;1.30;;;;;;;5.94;100.00;94025.16;4975454;28;20210;-68
2024/02/11 07:25:54;;;;;;;1.40;1.30;;;;;;;6.05;100.00;94022.72;4975683;28;20218;-70
2024/02/11 07:28:22;;;;;;;2.93;1.80;;;;;;;6.19;100.00;94024.31;4975236;28;20214;-72
2024/02/11 07:30:48;;;;;;;3.43;1.90;;;;;;;6.31;100.00;94033.94;4974494;28;20711;-70
2024/02/11 07:33:18;;;;;;;2.30;1.50;;;;;;;6.42;100.00;94027.28;4975688;28;20470;-69
2024/02/11 07:35:45;;;;;;;1.87;1.67;;;;;;;6.15;100.00;94039.59;4975532;28;20235;-68
2024/02/11 07:38:12;;;;;;;2.90;1.73;;;;;;;6.30;100.00;94036.75;4975765;28;20205;-70
2024/02/11 07:40:38;;;;;;;2.93;1.70;;;;;;;6.26;100.00;94041.59;4973745;28;20215;-69
2024/02/11 07:43:06;;;;;;;2.97;1.70;;;;;;;6.22;100.00;94048.25;4974983;28;20210;-71
2024/02/11 07:45:32;;;;;;;3.20;2.00;;;;;;;6.57;100.00;94038.28;4975580;28;20199;-70
2024/02/11 07:47:59;;;;;;;4.50;2.40;;;;;;;6.33;100.00;94058.06;4975174;28;20207;-69
2024/02/11 07:50:27;;;;;;;2.50;1.80;;;;;;;6.40;100.00;94053.66;4974321;28;20230;-70
2024/02/11 07:52:55;;;;;;;2.10;1.50;;;;;;;6.34;100.00;94064.91;4975555;28;20238;-71
2024/02/11 07:55:22;;;;;;;1.90;1.50;;;;;;;6.23;100.00;94068.13;4975524;28;20229;-71
2024/02/11 07:57:49;;;;;;;3.00;1.77;;;;;;;6.19;100.00;94064.31;4974465;28;20203;-69
2024/02/11 08:00:16;;;;;;;2.40;1.60;;;;;;;6.18;100.00;94067.94;4974180;28;20223;-70
2024/02/11 08:02:42;;;;;;;3.10;2.10;;;;;;;6.11;100.00;94075.00;4975447;28;20829;-71
2024/02/11 08:05:10;;;;;;;2.93;2.20;;;;;;;6.14;100.00;94077.19;4974966;28;20210;-69
2024/02/11 08:07:38;;;;;;;4.43;2.07;;;;;;;6.21;100.00;94059.72;4974346;28;20209;-69
2024/02/11 08:10:07;;;;;;;4.13;2.60;;;;;;;6.38;100.00;94073.16;4974359;28;20226;-68
2024/02/11 08:12:33;;;;;;;5.00;2.80;;;;;;;6.26;100.00;94070.38;4974354;28;20268;-70
2024/02/11 08:15:00;;;;;;;4.00;2.27;;;;;;;6.22;100.00;94070.97;4975124;28;20242;-70
2024/02/11 08:17:27;;;;;;;4.70;2.73;;;;;;;6.41;100.00;94070.13;4974626;28;20229;-68
2024/02/11 08:19:54;;;;;;;5.73;3.13;;;;;;;6.47;100.00;94070.13;4974407;28;20207;-69
2024/02/11 08:22:21;;;;;;;5.43;3.60;;;;;;;6.58;100.00;94066.88;4974623;28;20211;-71
2024/02/11 08:24:48;;;;;;;5.93;2.83;;;;;;;6.83;100.00;94065.19;4974452;28;21233;-71
2024/02/11 08:27:15;;;;;;;6.10;2.97;;;;;;;6.53;100.00;94073.72;4975111;28;21290;-68
2024/02/11 08:29:46;;;;;;;3.20;2.47;;;;;;;6.71;100.00;94078.09;4973451;28;20280;-68
2024/02/11 08:32:12;;;;;;;5.27;2.90;;;;;;;6.49;100.00;94078.56;4974376;28;20223;-69
2024/02/11 08:34:39;;;;;;;4.80;2.47;;;;;;;6.36;100.00;94078.56;4974594;28;20203;-71
2024/02/11 08:37:05;;;;;;;6.07;3.30;;;;;;;6.59;100.00;94073.69;4974755;28;20203;-69
2024/02/11 08:39:31;;;;;;;3.63;2.30;;;;;;;6.71;100.00;94078.09;4973407;28;20205;-68
2024/02/11 08:42:04;;;;;;;5.80;3.03;;;;;;;7.03;100.00;94076.41;4975588;28;20219;-68
2024/02/11 08:44:31;;;;;;;7.10;3.20;;;;;;;6.71;100.00;94088.56;4974839;28;21177;-69
2024/02/11 08:46:58;;;;;;;4.47;2.70;;;;;;;6.95;100.00;94089.69;4974329;28;20211;-69
2024/02/11 08:49:24;;;;;;;6.30;3.43;;;;;;;7.04;100.00;94091.06;4974360;28;20244;-70
2024/02/11 08:51:51;;;;;;;4.87;2.60;;;;;;;7.03;100.00;94089.50;4973445;28;20239;-69
2024/02/11 08:54:18;;;;;;;4.43;2.50;;;;;;;6.96;100.00;94081.66;4974681;28;20204;-69
2024/02/11 08:56:44;;;;;;;4.70;2.67;;;;;;;7.12;100.00;94088.25;4974401;28;20227;-69
2024/02/11 08:59:13;;;;;;;3.97;2.30;;;;;;;7.24;100.00;94094.44;4974184;28;20204;-69
2024/02/11 09:01:39;;;;;;;5.70;2.60;;;;;;;7.02;100.00;94091.28;4972967;28;20223;-69
2024/02/11 09:04:06;;;;;;;4.83;2.90;;;;;;;7.03;100.00;94092.91;4974323;28;20199;-70
2024/02/11 09:06:33;;;;;;;5.60;2.57;;;;;;;7.09;100.00;94096.50;4974538;28;20203;-69
2024/02/11 09:09:00;;;;;;;4.47;2.10;;;;;;;7.21;100.00;94090.41;4978673;28;20741;-69
2024/02/11 09:11:26;;;;;;;3.77;2.20;;;;;;;7.15;100.00;94098.28;4975673;28;20444;-69
2024/02/11 09:13:53;;;;;;;4.97;2.80;;;;;;;7.21;100.00;94094.84;4976827;28;20207;-69
2024/02/11 09:16:25;;;;;;;4.13;2.30;;;;;;;7.29;100.00;94098.84;4977805;28;20199;-69
2024/02/11 09:18:52;;;;;;;4.30;2.53;;;;;;;7.52;100.00;94101.75;4977084;28;20204;-69
2024/02/11 09:21:18;;;;;;;5.27;2.90;;;;;;;7.49;100.00;94107.38;4976594;28;20226;-69
2024/02/11 09:23:45;;;;;;;7.00;2.60;;;;;;;7.26;100.00;94112.31;4977696;28;20581;-69
2024/02/11 09:26:11;;;;;;;6.20;3.13;;;;;;;7.41;100.00;94107.63;4977036;28;20214;-69
2024/02/11 09:28:39;;;;;;;5.90;3.03;;;;;;;7.80;100.00;94106.59;4976823;28;20876;-69
2024/02/11 09:31:06;;;;;;;6.60;2.90;;;;;;;7.54;100.00;94106.78;4976760;28;20247;-70
2024/02/11 09:33:36;;;;;;;5.60;2.63;;;;;;;7.75;100.00;94109.06;4977318;28;20568;-69
2024/02/11 09:36:03;;;;;;;3.87;2.00;;;;;;;7.60;100.00;94116.41;4976859;28;20578;-69
2024/02/11 09:38:30;;;;;;;4.13;2.93;;;;;;;8.07;100.00;94117.50;4977517;28;20209;-69
2024/02/11 09:40:57;;;;;;;4.23;2.50;;;;;;;7.76;100.00;94127.19;4975578;28;20337;-69
2024/02/11 09:43:24;;;;;;;7.90;3.83;;;;;;;8.11;100.00;94126.56;4976638;28;20221;-69
2024/02/11 09:45:52;;;;;;;7.37;3.30;;;;;;;8.15;100.00;94121.72;4977076;28;20221;-69
2024/02/11 09:48:20;;;;;;;4.73;2.83;;;;;;;8.12;100.00;94132.59;4977325;28;20215;-69
2024/02/11 09:50:48;;;;;;;5.30;2.87;;;;;;;8.00;100.00;94126.44;4975958;28;20238;-69
2024/02/11 09:53:17;;;;;;;6.77;3.37;;;;;;;8.02;100.00;94132.28;4976042;28;20208;-69
2024/02/11 09:55:45;;;;;;;7.97;3.23;;;;;;;8.23;100.00;94129.34;4977281;28;20204;-69
2024/02/11 09:58:12;;;;;;;5.60;3.00;;;;;;;8.14;100.00;94138.47;4976249;28;20203;-70
2024/02/11 10:00:38;;;;;;;6.97;3.37;;;;;;;8.19;100.00;94133.41;4976589;28;20223;-69
2024/02/11 10:03:09;;;;;;;7.43;2.70;;;;;;;8.31;100.00;94139.56;4976479;28;20218;-69
2024/02/11 10:05:39;;;;;;;7.57;3.27;;;;;;;8.11;100.00;94136.25;4976459;28;20203;-69
2024/02/11 10:08:13;;;;;;;8.83;3.63;;;;;;;8.38;100.00;94138.50;4976402;28;21076;-69
2024/02/11 10:10:40;;;;;;;5.30;3.10;;;;;;;8.14;100.00;94147.13;4975451;28;20776;-69
2024/02/11 10:13:08;;;;;;;6.90;3.47;;;;;;;8.34;100.00;94147.81;4976049;28;20210;-69
2024/02/11 10:15:35;;;;;;;5.27;2.87;;;;;;;8.12;100.00;94150.97;4976527;28;20306;-69
2024/02/11 10:18:04;;;;;;;5.97;3.23;;;;;;;8.62;100.00;94151.59;4976705;28;20239;-70
2024/02/11 10:20:31;;;;;;;5.17;2.83;;;;;;;8.48;100.00;94148.50;4975337;28;20219;-69
2024/02/11 10:22:58;;;;;;;7.17;3.33;;;;;;;8.54;100.00;94153.69;4976365;28;20749;-69
2024/02/11 10:25:27;;;;;;;8.50;3.10;;;;;;;8.56;100.00;94155.09;4976347;28;20204;-69
2024/02/11 10:27:53;;;;;;;7.43;3.63;;;;;;;8.53;100.00;94171.28;4976257;28;20248;-69
2024/02/11 10:30:20;;;;;;;9.43;3.73;;;;;;;8.63;100.00;94168.97;4975198;28;20227;-69
2024/02/11 10:32:46;;;;;;;4.97;2.80;;;;;;;8.73;100.00;94176.34;4976691;28;20215;-69
2024/02/11 10:35:14;;;;;;;9.23;3.90;;;;;;;8.47;100.00;94170.53;4976469;28;20210;-70
2024/02/11 10:37:43;;;;;;;7.00;3.63;;;;;;;8.63;100.00;94176.03;4975834;28;20272;-69
2024/02/11 10:40:11;;;;;;;7.13;3.33;;;;;;;8.77;100.00;94175.72;4975451;28;20676;-70
2024/02/11 10:42:40;;;;;;;5.50;2.53;;;;;;;9.03;100.00;94170.22;4975541;28;20669;-69
2024/02/11 10:45:09;;;;;;;6.03;3.37;;;;;;;8.81;100.00;94181.34;4976705;28;20203;-69
2024/02/11 10:47:36;;;;;;;8.27;3.27;;;;;;;8.99;100.00;94174.28;4976130;28;20695;-69
2024/02/11 10:52:36;;;;;;;3.57;2.00;;;;;;;8.91;100.00;94186.88;5053600;27;20574;-67
2024/02/11 10:55:04;;;;;;;8.30;2.60;;;;;;;9.04;100.00;94181.50;5054209;28;20228;-67
2024/02/11 10:57:40;;;;;;;12.97;2.50;;;;;;;9.02;100.00;94180.94;5054563;28;20239;-67
2024/02/11 11:00:10;;;;;;;4.57;2.20;;;;;;;9.01;100.00;94179.31;5053789;28;20354;-68
2024/02/11 11:02:38;;;;;;;4.33;2.53;;;;;;;9.38;100.00;94179.13;5053384;28;21223;-67
2024/02/11 11:05:10;;;;;;;3.50;2.30;;;;;;;9.31;100.00;94173.16;5054226;28;20200;-68
2024/02/11 11:07:40;;;;;;;5.60;2.63;;;;;;;9.47;100.00;94178.63;5054468;28;20208;-68
2024/02/11 11:10:10;;;;;;;6.70;3.53;;;;;;;9.35;100.00;94182.19;5052456;28;20667;-68
2024/02/11 11:12:37;;;;;;;5.77;2.57;;;;;;;9.17;100.00;94182.19;5053086;28;20204;-68
2024/02/11 11:15:08;;;;;;;5.10;2.63;;;;;;;9.38;100.00;94179.13;5053548;28;20223;-68
2024/02/11 11:17:36;;;;;;;4.63;2.30;;;;;;;9.24;100.00;94180.28;5053305;28;20693;-68
2024/02/11 11:20:12;;;;;;;7.67;2.30;;;;;;;9.12;100.00;94179.41;5053083;28;21045;-68
2024/02/11 11:22:40;;;;;;;5.47;2.60;;;;;;;9.32;100.00;94174.75;5053915;28;20245;-68
2024/02/11 11:25:11;;;;;;;2.60;1.93;;;;;;;9.35;100.00;94169.84;5053543;28;20204;-69
2024/02/11 11:27:38;;;;;;;3.13;2.07;;;;;;;8.99;100.00;94169.03;5054796;28;20596;-68
2024/02/11 11:30:07;;;;;;;2.73;1.80;;;;;;;9.29;100.00;94164.66;5053192;28;20565;-68
2024/02/11 11:32:35;;;;;;;2.97;1.90;;;;;;;9.41;100.00;94168.97;5052723;28;20225;-67